Cooperville, Idaho
Current Conditions -  °F | °C
As of 5:15 AM on Saturday 25 Oct 2014 (Local Time) from KGIC Reporting Station
Overcast Overcast  
Wind Chill: 42°   Ceiling: 100
Heat Index: 42°   Visibility: 0.25mi
Dew Point: 40°   Wind: 0mph
Humidity: 95%   Direction: NA
Pressure: 29.86"   Gusts: NA
Location:  45.7487°N, 116.14°W
Report Text: KGIC 251215Z AUTO 00000KT 1/4SM OVC001 05/05 A2986 RMK AO1 T00540046
Loading
Personal Weather Stations






























Interactive Weather Map
Tropical Storm Tracking
New forecast layout! Learn more

10-Day Weather Forecast

Advertisements
Track Severe Weather on mobile